createdAt,value
2017-11-20T00:02:21.814Z,10.00
2017-11-20T00:04:50.063Z,9.87
2017-11-20T00:07:18.350Z,10.87
2017-11-20T00:09:47.347Z,8.70
2017-11-20T00:12:16.348Z,9.93
2017-11-20T00:14:44.623Z,9.57
2017-11-20T00:17:13.653Z,8.80
2017-11-20T00:19:41.904Z,9.40
2017-11-20T00:22:10.160Z,10.50
2017-11-20T00:24:38.512Z,9.97
2017-11-20T00:27:08.458Z,11.63
2017-11-20T00:29:37.519Z,11.53
2017-11-20T00:32:05.781Z,10.00
2017-11-20T00:34:34.034Z,10.63
2017-11-20T00:37:02.325Z,9.73
2017-11-20T00:39:30.569Z,11.00
2017-11-20T00:41:59.584Z,10.07
2017-11-20T00:44:27.824Z,10.87
2017-11-20T00:46:56.826Z,9.73
2017-11-20T00:49:26.728Z,10.47
2017-11-20T00:51:55.105Z,11.20
2017-11-20T00:54:23.483Z,9.90
2017-11-20T00:56:52.439Z,9.97
2017-11-20T00:59:20.693Z,9.13
2017-11-20T01:01:48.935Z,8.87
2017-11-20T01:04:18.006Z,9.80
2017-11-20T01:06:46.255Z,8.30
2017-11-20T01:09:24.446Z,8.83
2017-11-20T01:11:53.434Z,8.77
2017-11-20T01:14:21.715Z,9.33
2017-11-20T01:16:51.091Z,9.90
2017-11-20T01:19:19.349Z,10.53
2017-11-20T01:21:47.624Z,11.07
2017-11-20T01:24:16.902Z,10.83
2017-11-20T01:26:45.196Z,10.30
2017-11-20T01:29:13.465Z,11.03
2017-11-20T01:31:41.776Z,12.03
2017-11-20T01:34:10.026Z,9.83
2017-11-20T01:36:38.286Z,11.70
2017-11-20T01:39:06.515Z,10.20
2017-11-20T01:41:35.565Z,10.93
2017-11-20T01:44:03.807Z,12.03
2017-11-20T01:46:32.086Z,10.63
2017-11-20T01:49:00.354Z,9.90
2017-11-20T01:51:29.361Z,10.17
2017-11-20T01:53:57.675Z,9.07
2017-11-20T01:56:25.954Z,9.47
2017-11-20T01:58:54.205Z,9.40
2017-11-20T02:01:22.463Z,8.80
2017-11-20T02:03:50.738Z,9.20
2017-11-20T02:06:19.049Z,6.40
2017-11-20T02:08:47.285Z,7.30
2017-11-20T02:11:16.315Z,8.20
2017-11-20T02:13:44.563Z,9.40
2017-11-20T02:16:13.574Z,10.00
2017-11-20T02:18:41.884Z,8.50
2017-11-20T02:21:10.126Z,9.57
2017-11-20T02:23:38.405Z,11.07
2017-11-20T02:26:07.416Z,10.07
2017-11-20T02:28:35.664Z,10.03
2017-11-20T02:31:03.984Z,10.60
2017-11-20T02:33:32.271Z,10.53
2017-11-20T02:36:00.563Z,10.63
2017-11-20T02:38:28.859Z,10.70
2017-11-20T02:40:57.144Z,11.43
2017-11-20T02:43:25.429Z,11.77
2017-11-20T02:45:54.463Z,14.70
2017-11-20T02:48:23.103Z,14.80
2017-11-20T02:50:51.386Z,13.47
2017-11-20T02:53:20.411Z,13.07
2017-11-20T02:55:48.708Z,14.40
2017-11-20T02:58:16.994Z,14.63
2017-11-20T03:00:46.165Z,13.67
2017-11-20T03:03:14.498Z,14.00
2017-11-20T03:05:43.547Z,14.00
2017-11-20T03:08:11.800Z,15.40
2017-11-20T03:10:40.094Z,13.00
2017-11-20T03:13:08.383Z,16.20
2017-11-20T03:15:36.625Z,14.57
2017-11-20T03:18:05.715Z,15.47
2017-11-20T03:20:34.748Z,15.30
2017-11-20T03:23:03.030Z,14.73
2017-11-20T03:25:31.348Z,16.50
2017-11-20T03:27:59.627Z,14.77
2017-11-20T03:30:27.934Z,13.60
2017-11-20T03:32:56.937Z,15.07
2017-11-20T03:35:25.169Z,14.40
2017-11-20T03:37:54.204Z,15.03
2017-11-20T03:40:22.449Z,13.37
2017-11-20T03:42:50.719Z,14.03
2017-11-20T03:45:18.969Z,12.60
2017-11-20T03:47:47.234Z,13.57
2017-11-20T03:50:15.465Z,12.43
2017-11-20T03:52:44.519Z,11.27
2017-11-20T03:55:13.057Z,11.90
2017-11-20T03:57:41.267Z,11.20
2017-11-20T04:00:09.516Z,12.20
2017-11-20T04:02:37.790Z,9.20
2017-11-20T04:05:06.808Z,7.60
2017-11-20T04:07:35.030Z,8.83
2017-11-20T04:10:03.425Z,8.37
2017-11-20T04:12:32.458Z,7.73
2017-11-20T04:15:00.726Z,7.90
2017-11-20T04:17:29.726Z,8.70
2017-11-20T04:19:57.973Z,7.83
2017-11-20T04:22:26.521Z,7.83
2017-11-20T04:24:54.782Z,8.60
2017-11-20T04:27:23.029Z,6.53
2017-11-20T04:29:52.047Z,7.70
2017-11-20T04:32:20.351Z,7.70
2017-11-20T04:34:48.645Z,7.07
2017-11-20T04:37:16.892Z,7.67
2017-11-20T04:39:45.172Z,6.70
2017-11-20T04:42:13.427Z,6.87
2017-11-20T04:44:41.701Z,6.17
2017-11-20T04:47:09.967Z,7.13
2017-11-20T04:49:38.288Z,6.80
2017-11-20T04:52:07.458Z,8.20
2017-11-20T04:54:35.695Z,7.70
2017-11-20T04:57:03.944Z,7.90
2017-11-20T04:59:32.328Z,8.43
2017-11-20T05:02:00.695Z,8.00
2017-11-20T05:04:29.013Z,7.73
2017-11-20T05:06:57.239Z,7.53
2017-11-20T05:09:25.496Z,7.60
2017-11-20T05:11:53.743Z,8.33
2017-11-20T05:14:22.796Z,7.50
2017-11-20T05:16:51.049Z,8.77
2017-11-20T05:19:19.397Z,10.20
2017-11-20T05:21:47.638Z,8.90
2017-11-20T05:24:15.901Z,10.23
2017-11-20T05:26:44.165Z,8.60
2017-11-20T05:29:12.425Z,9.17
2017-11-20T05:31:41.436Z,8.70
2017-11-20T05:34:09.754Z,9.97
2017-11-20T05:36:38.014Z,9.37
2017-11-20T05:39:06.859Z,8.07
2017-11-20T05:41:35.171Z,9.03
2017-11-20T05:44:03.410Z,9.10
2017-11-20T05:46:32.440Z,7.83
2017-11-20T05:49:00.698Z,8.33
2017-11-20T05:51:29.022Z,9.83
2017-11-20T05:53:57.283Z,8.43
2017-11-20T05:56:25.701Z,8.50
2017-11-20T05:58:53.929Z,8.37
2017-11-20T06:01:22.219Z,11.30
2017-11-20T06:03:50.511Z,9.10
2017-11-20T06:06:18.846Z,10.67
2017-11-20T06:08:47.091Z,8.93
2017-11-20T06:11:15.375Z,9.07
2017-11-20T06:13:44.375Z,9.30
2017-11-20T06:16:13.432Z,9.60
2017-11-20T06:18:41.710Z,10.40
2017-11-20T06:21:10.445Z,10.50
2017-11-20T06:23:38.709Z,8.00
2017-11-20T06:26:07.781Z,9.47
2017-11-20T06:28:36.048Z,11.13
2017-11-20T06:31:04.281Z,10.80
2017-11-20T06:33:32.606Z,12.27
2017-11-20T06:36:00.856Z,10.90
2017-11-20T06:38:29.590Z,8.87
2017-11-20T06:40:57.995Z,9.97
2017-11-20T06:43:27.025Z,10.13
2017-11-20T06:45:55.289Z,8.57
2017-11-20T06:48:23.636Z,9.27
2017-11-20T06:50:52.680Z,10.27
2017-11-20T06:53:20.980Z,10.03
2017-11-20T06:55:49.246Z,13.93
2017-11-20T06:58:17.497Z,9.97
2017-11-20T07:00:45.748Z,9.03
2017-11-20T07:03:14.085Z,9.20
2017-11-20T07:05:42.387Z,9.20
2017-11-20T07:08:12.145Z,9.90
2017-11-20T07:10:40.374Z,11.40
2017-11-20T07:13:09.419Z,10.10
2017-11-20T07:15:37.673Z,8.83
2017-11-20T07:18:05.977Z,12.90
2017-11-20T07:20:38.180Z,11.73
2017-11-20T07:23:06.466Z,12.37
2017-11-20T07:25:58.363Z,11.70
2017-11-20T07:28:38.450Z,13.53
2017-11-20T07:31:29.404Z,11.33
2017-11-20T07:34:10.388Z,12.47
2017-11-20T07:36:50.549Z,10.90
2017-11-20T07:39:35.648Z,11.70
2017-11-20T07:42:04.361Z,13.30
2017-11-20T07:44:34.629Z,12.70
2017-11-20T07:47:02.881Z,12.67
2017-11-20T07:49:31.903Z,12.07
2017-11-20T07:52:00.170Z,12.57
2017-11-20T07:54:28.428Z,13.83
2017-11-20T07:56:56.700Z,11.97
2017-11-20T07:59:25.699Z,12.53
2017-11-20T08:01:54.012Z,13.73
2017-11-20T08:04:22.253Z,12.80
2017-11-20T08:06:51.444Z,13.30
2017-11-20T08:09:20.473Z,12.90
2017-11-20T08:11:48.775Z,13.57
2017-11-20T08:14:17.054Z,13.37
2017-11-20T08:16:45.286Z,12.63
2017-11-20T08:19:13.624Z,13.03
2017-11-20T08:21:41.901Z,13.57
2017-11-20T08:24:10.205Z,9.07
2017-11-20T08:26:39.305Z,10.60
2017-11-20T08:29:09.001Z,8.27
2017-11-20T08:31:37.319Z,9.10
2017-11-20T08:34:05.706Z,9.00
2017-11-20T08:36:34.754Z,6.83
2017-11-20T08:39:03.703Z,7.50
2017-11-20T08:41:31.959Z,7.17
2017-11-20T08:44:00.209Z,7.87
2017-11-20T08:46:28.474Z,6.00
2017-11-20T08:48:56.730Z,4.43
2017-11-20T08:51:25.046Z,4.73
2017-11-20T08:53:53.514Z,5.00
2017-11-20T08:56:22.552Z,5.63
2017-11-20T08:58:50.885Z,5.20
2017-11-20T09:01:19.130Z,6.97
2017-11-20T09:03:47.477Z,6.47
2017-11-20T09:06:16.513Z,7.50
2017-11-20T09:08:45.694Z,9.50
2017-11-20T09:11:13.962Z,8.00
2017-11-20T09:13:43.130Z,7.90
2017-11-20T09:16:12.165Z,8.80
2017-11-20T09:18:40.403Z,10.83
2017-11-20T09:21:09.481Z,7.70
2017-11-20T09:23:37.730Z,8.20
2017-11-20T09:26:06.757Z,9.30
2017-11-20T09:28:35.816Z,10.43
2017-11-20T09:31:04.137Z,10.20
2017-11-20T09:33:32.395Z,9.60
2017-11-20T09:36:00.643Z,11.73
2017-11-20T09:38:28.955Z,9.63
2017-11-20T09:40:57.217Z,10.73
2017-11-20T09:43:25.512Z,12.13
2017-11-20T09:45:53.765Z,11.87
2017-11-20T09:48:22.068Z,11.27
2017-11-20T09:50:51.189Z,9.63
2017-11-20T09:53:19.401Z,9.57
2017-11-20T09:55:47.707Z,10.50
2017-11-20T09:58:16.000Z,10.40
2017-11-20T10:00:45.080Z,10.27
2017-11-20T10:03:13.375Z,11.30
2017-11-20T10:05:43.136Z,9.80
2017-11-20T10:08:11.419Z,8.77
2017-11-20T10:10:39.711Z,8.87
2017-11-20T10:13:08.007Z,10.47
2017-11-20T10:15:37.081Z,8.83
2017-11-20T10:18:05.357Z,9.30
2017-11-20T10:20:33.609Z,5.90
2017-11-20T10:23:01.932Z,7.27
2017-11-20T10:25:30.262Z,8.47
2017-11-20T10:27:59.704Z,7.60
2017-11-20T10:30:27.948Z,6.60
2017-11-20T10:32:56.880Z,7.20
2017-11-20T10:35:25.142Z,7.60
2017-11-20T10:37:53.487Z,8.07
2017-11-20T10:40:22.560Z,5.80
2017-11-20T10:42:51.242Z,5.50
2017-11-20T10:45:19.589Z,5.53
2017-11-20T10:47:47.873Z,5.83
2017-11-20T10:50:16.177Z,5.33
2017-11-20T10:52:45.309Z,15.73
2017-11-20T10:55:13.610Z,3.87
2017-11-20T10:57:41.970Z,4.57
2017-11-20T11:00:10.222Z,4.93
2017-11-20T11:02:38.795Z,7.50
2017-11-20T11:05:07.073Z,4.50
2017-11-20T11:07:35.344Z,4.63
2017-11-20T11:10:04.936Z,4.77
2017-11-20T11:12:33.219Z,4.80
2017-11-20T11:15:02.450Z,5.80
2017-11-20T11:17:32.027Z,5.70
2017-11-20T11:20:00.380Z,5.37
2017-11-20T11:22:28.614Z,6.43
2017-11-20T11:24:57.700Z,5.10
2017-11-20T11:27:27.067Z,3.70
2017-11-20T11:29:56.363Z,3.20
2017-11-20T11:32:24.602Z,4.57
2017-11-20T11:34:57.774Z,3.03
2017-11-20T11:37:26.873Z,2.93
2017-11-20T11:39:55.970Z,3.30
2017-11-20T11:42:24.245Z,3.67
2017-11-20T11:44:52.614Z,3.70
2017-11-20T11:47:20.929Z,3.33
2017-11-20T11:49:49.990Z,3.20
2017-11-20T11:52:18.297Z,3.60
2017-11-20T11:54:47.328Z,2.80
2017-11-20T11:57:15.609Z,2.97
2017-11-20T11:59:43.954Z,2.43
2017-11-20T12:02:13.335Z,2.80
2017-11-20T12:04:42.432Z,2.30
2017-11-20T12:07:12.193Z,2.50
2017-11-20T12:09:40.573Z,2.80
2017-11-20T12:12:08.877Z,2.57
2017-11-20T12:14:37.152Z,2.60
2017-11-20T12:17:06.788Z,2.23
2017-11-20T12:19:35.036Z,1.80
2017-11-20T12:22:03.915Z,1.60
2017-11-20T12:24:33.798Z,1.70
2017-11-20T12:27:02.997Z,2.50
2017-11-20T12:29:31.374Z,2.00
2017-11-20T12:32:00.665Z,2.83
2017-11-20T12:34:31.295Z,2.17
2017-11-20T12:36:59.641Z,3.10
2017-11-20T12:39:28.003Z,2.47
2017-11-20T12:41:56.233Z,2.10
2017-11-20T12:44:24.564Z,2.80
2017-11-20T12:46:53.020Z,2.80
2017-11-20T12:49:22.020Z,3.60
2017-11-20T12:51:50.275Z,2.70
2017-11-20T12:54:19.433Z,2.17
2017-11-20T12:56:48.604Z,2.27
2017-11-20T12:59:16.927Z,2.63
2017-11-20T13:01:45.948Z,2.37
2017-11-20T13:04:14.325Z,2.90
2017-11-20T13:06:42.546Z,2.93
2017-11-20T13:09:10.819Z,3.23
2017-11-20T13:11:39.099Z,3.60
2017-11-20T13:14:07.429Z,2.70
2017-11-20T13:16:36.509Z,3.90
2017-11-20T13:19:05.558Z,2.93
2017-11-20T13:21:34.725Z,3.23
2017-11-20T13:24:02.991Z,2.90
2017-11-20T13:26:32.267Z,2.70
2017-11-20T13:29:01.705Z,3.73
2017-11-20T13:31:31.363Z,2.80
2017-11-20T13:33:59.732Z,3.03
2017-11-20T13:36:28.037Z,2.47
2017-11-20T13:38:57.381Z,2.40
2017-11-20T13:41:25.667Z,2.03
2017-11-20T13:43:53.932Z,2.70
2017-11-20T13:46:22.974Z,3.00
2017-11-20T13:48:51.307Z,2.30
2017-11-20T13:51:19.615Z,2.20
2017-11-20T13:53:47.887Z,3.77
2017-11-20T13:56:16.197Z,2.60
2017-11-20T13:58:44.473Z,2.60
2017-11-20T14:01:12.797Z,2.20
2017-11-20T14:03:41.808Z,1.80
2017-11-20T14:06:21.636Z,2.03
2017-11-20T14:08:49.909Z,2.67
2017-11-20T14:11:18.572Z,3.60
2017-11-20T14:13:48.934Z,3.10
2017-11-20T14:16:17.244Z,3.90
2017-11-20T14:18:45.493Z,2.10
2017-11-20T14:21:13.765Z,3.17
2017-11-20T14:23:42.931Z,2.20
2017-11-20T14:26:11.197Z,2.40
2017-11-20T14:28:39.508Z,3.03
2017-11-20T14:31:07.766Z,2.07
2017-11-20T14:33:36.052Z,2.40
2017-11-20T14:36:04.329Z,2.70
2017-11-20T14:38:33.475Z,2.67
2017-11-20T14:41:02.106Z,3.03
2017-11-20T14:43:30.388Z,2.80
2017-11-20T14:45:58.681Z,2.70
2017-11-20T14:48:32.674Z,4.10
2017-11-20T14:51:03.389Z,4.43
2017-11-20T14:53:32.822Z,3.13
2017-11-20T14:56:01.054Z,2.63
2017-11-20T14:58:29.391Z,4.10
2017-11-20T15:00:57.765Z,3.20
2017-11-20T15:03:26.093Z,5.30
2017-11-20T15:05:54.456Z,4.07
2017-11-20T15:08:22.784Z,3.70
2017-11-20T15:10:51.862Z,3.93
2017-11-20T15:13:20.943Z,3.53
2017-11-20T15:15:50.061Z,4.40
2017-11-20T15:18:19.112Z,3.77
2017-11-20T15:20:47.425Z,4.70
2017-11-20T15:23:15.724Z,2.47
2017-11-20T15:25:46.322Z,5.37
2017-11-20T15:28:15.496Z,5.03
2017-11-20T15:30:46.893Z,6.87
2017-11-20T15:33:15.977Z,4.90
2017-11-20T15:35:45.798Z,5.43
2017-11-20T15:38:14.120Z,5.87
2017-11-20T15:40:44.078Z,5.40
2017-11-20T15:43:13.183Z,5.07
2017-11-20T15:45:41.484Z,6.07
2017-11-20T15:48:10.712Z,7.70
2017-11-20T15:50:39.783Z,5.57
2017-11-20T15:53:08.037Z,6.00
2017-11-20T15:55:37.921Z,7.27
2017-11-20T15:58:06.212Z,6.00
2017-11-20T16:00:34.624Z,6.37
2017-11-20T16:03:03.701Z,6.90
2017-11-20T16:05:31.971Z,5.70
2017-11-20T16:08:00.291Z,5.60
2017-11-20T16:10:29.317Z,5.17
2017-11-20T16:12:57.766Z,4.63
2017-11-20T16:15:26.020Z,5.83
2017-11-20T16:17:54.304Z,5.27
2017-11-20T16:20:23.003Z,6.60
2017-11-20T16:22:51.223Z,4.90
2017-11-20T16:25:19.472Z,4.67
2017-11-20T16:27:48.413Z,4.53
2017-11-20T16:30:16.710Z,4.60
2017-11-20T16:32:44.941Z,3.70
2017-11-20T16:35:13.203Z,6.23
2017-11-20T16:37:42.233Z,5.63
2017-11-20T16:40:10.657Z,4.53
2017-11-20T16:42:39.908Z,3.90
2017-11-20T16:45:08.226Z,5.13
2017-11-20T16:47:36.586Z,5.33
2017-11-20T16:50:05.010Z,5.37
2017-11-20T16:52:34.122Z,5.13
2017-11-20T16:55:03.150Z,4.60
2017-11-20T16:57:43.267Z,4.10
2017-11-20T17:03:13.129Z,4.03
2017-11-20T17:05:42.184Z,4.53
2017-11-20T17:08:12.528Z,4.10
2017-11-20T17:10:40.780Z,3.93
2017-11-20T17:13:09.854Z,6.00
2017-11-20T17:15:38.181Z,3.70
2017-11-20T17:18:06.529Z,3.30
2017-11-20T17:20:35.588Z,3.63
2017-11-20T17:23:03.880Z,4.07
2017-11-20T17:25:32.179Z,3.73
2017-11-20T17:28:00.504Z,2.80
2017-11-20T17:30:28.779Z,3.93
2017-11-20T17:32:57.103Z,3.30
2017-11-20T17:35:25.409Z,2.73
2017-11-20T17:37:54.564Z,3.50
2017-11-20T17:40:22.858Z,3.20
2017-11-20T17:42:51.122Z,3.90
2017-11-20T17:45:19.425Z,2.90
2017-11-20T17:47:47.688Z,3.40
2017-11-20T17:50:15.966Z,4.77
2017-11-20T17:52:44.244Z,3.50
2017-11-20T17:55:12.521Z,5.30
2017-11-20T17:57:40.833Z,4.60
2017-11-20T18:00:09.861Z,2.90
2017-11-20T18:02:38.176Z,2.40
2017-11-20T18:05:06.446Z,3.70
2017-11-20T18:07:34.702Z,2.87
2017-11-20T18:10:02.975Z,3.00
2017-11-20T18:12:31.208Z,3.87
2017-11-20T18:15:00.818Z,3.60
2017-11-20T18:17:29.852Z,3.10
2017-11-20T18:19:58.140Z,3.80
2017-11-20T18:22:26.668Z,3.10
2017-11-20T18:24:54.928Z,2.93
2017-11-20T18:27:23.224Z,3.27
2017-11-20T18:29:51.504Z,3.53
2017-11-20T18:32:20.574Z,2.60
2017-11-20T18:34:48.981Z,2.67
2017-11-20T18:37:17.271Z,2.10
2017-11-20T18:39:46.307Z,2.20
2017-11-20T18:42:14.612Z,2.40
2017-11-20T18:44:42.910Z,2.73
2017-11-20T18:47:11.201Z,3.33
2017-11-20T18:49:39.463Z,3.17
2017-11-20T18:52:07.914Z,2.50
2017-11-20T18:54:37.017Z,2.43
2017-11-20T18:57:05.355Z,2.13
2017-11-20T18:59:34.424Z,2.50
2017-11-20T19:02:15.453Z,2.20
2017-11-20T19:04:55.516Z,2.33
2017-11-20T19:07:35.765Z,2.90
2017-11-20T19:10:04.485Z,2.40
2017-11-20T19:12:33.544Z,1.93
2017-11-20T19:15:02.746Z,2.60
2017-11-20T19:17:31.083Z,2.00
2017-11-20T19:20:00.153Z,1.90
2017-11-20T19:22:28.438Z,1.70
2017-11-20T19:24:56.929Z,2.67
2017-11-20T19:27:25.488Z,1.40
2017-11-20T19:29:53.847Z,2.10
2017-11-20T19:32:22.117Z,3.17
2017-11-20T19:34:52.873Z,1.90
2017-11-20T19:37:21.318Z,2.23
2017-11-20T19:39:50.387Z,1.50
2017-11-20T19:42:18.850Z,2.70
2017-11-20T19:44:47.930Z,2.70
2017-11-20T19:47:16.242Z,2.20
2017-11-20T19:49:44.484Z,2.83
2017-11-20T19:52:12.788Z,2.60
2017-11-20T19:54:41.046Z,2.00
2017-11-20T19:57:09.332Z,1.90
2017-11-20T19:59:38.524Z,1.70
2017-11-20T20:02:06.902Z,2.93
2017-11-20T20:04:36.241Z,2.00
2017-11-20T20:07:04.700Z,2.00
2017-11-20T20:09:32.970Z,1.80
2017-11-20T20:12:01.262Z,1.30
2017-11-20T20:14:30.366Z,1.93
2017-11-20T20:17:05.445Z,2.03
2017-11-20T20:19:34.559Z,2.00
2017-11-20T20:22:02.877Z,3.10
2017-11-20T20:24:31.273Z,2.47
2017-11-20T20:27:01.525Z,1.27
2017-11-20T20:29:29.910Z,1.60
2017-11-20T20:31:58.227Z,2.30
2017-11-20T20:34:27.528Z,2.63
2017-11-20T20:36:55.771Z,1.90
2017-11-20T20:39:24.626Z,3.10
2017-11-20T20:41:53.630Z,2.57
2017-11-20T20:44:21.943Z,2.50
2017-11-20T20:46:50.216Z,2.20
2017-11-20T20:49:18.513Z,2.07
2017-11-20T20:51:46.745Z,2.30
2017-11-20T20:54:15.785Z,2.30
2017-11-20T20:56:44.050Z,2.30
2017-11-20T20:59:12.426Z,4.10
2017-11-20T21:01:40.730Z,2.47
2017-11-20T21:04:09.782Z,2.03
2017-11-20T21:06:43.836Z,2.20
2017-11-20T21:09:12.135Z,2.23
2017-11-20T21:11:46.827Z,2.60
2017-11-20T21:14:15.094Z,2.10
2017-11-20T21:16:43.375Z,2.20
2017-11-20T21:19:11.648Z,2.13
2017-11-20T21:21:40.063Z,2.63
2017-11-20T21:24:08.406Z,2.30
2017-11-20T21:26:36.675Z,2.67
2017-11-20T21:29:05.096Z,3.20
2017-11-20T21:31:33.351Z,3.13
2017-11-20T21:34:02.678Z,3.60
2017-11-20T21:36:31.475Z,2.63
2017-11-20T21:39:00.604Z,2.87
2017-11-20T21:41:29.657Z,3.27
2017-11-20T21:43:58.774Z,2.67
2017-11-20T21:46:27.141Z,3.20
2017-11-20T21:48:55.408Z,3.27
2017-11-20T21:51:23.646Z,2.80
2017-11-20T21:53:51.894Z,3.87
2017-11-20T21:56:20.215Z,3.30
2017-11-20T21:58:48.703Z,3.67
2017-11-20T22:01:17.016Z,3.17
2017-11-20T22:03:45.355Z,3.00
2017-11-20T22:06:13.661Z,4.77
2017-11-20T22:08:41.963Z,3.70
2017-11-20T22:11:11.044Z,3.60
2017-11-20T22:13:39.381Z,2.60
2017-11-20T22:16:08.422Z,2.67
2017-11-20T22:18:36.685Z,2.70
2017-11-20T22:21:04.965Z,2.63
2017-11-20T22:23:33.191Z,2.70
2017-11-20T22:26:01.469Z,2.30
2017-11-20T22:28:29.722Z,2.43
2017-11-20T22:30:58.007Z,2.70
2017-11-20T22:33:26.277Z,2.57
2017-11-20T22:35:55.281Z,2.80
2017-11-20T22:38:23.617Z,2.30
2017-11-20T22:40:51.924Z,2.03
2017-11-20T22:43:20.198Z,2.40
2017-11-20T22:45:48.444Z,1.90
2017-11-20T22:48:16.716Z,2.73
2017-11-20T22:50:44.941Z,2.57
2017-11-20T22:53:13.215Z,1.73
2017-11-20T22:55:42.203Z,2.20
2017-11-20T22:58:11.227Z,2.30
2017-11-20T23:00:39.541Z,2.10
2017-11-20T23:03:07.832Z,1.73
2017-11-20T23:05:36.876Z,2.37
2017-11-20T23:08:05.169Z,2.23
2017-11-20T23:10:33.457Z,2.47
2017-11-20T23:13:01.783Z,2.30
2017-11-20T23:15:30.082Z,1.77
2017-11-20T23:17:58.331Z,2.37
2017-11-20T23:20:27.485Z,2.03
2017-11-20T23:22:55.743Z,2.27
2017-11-20T23:25:23.966Z,2.43
2017-11-20T23:27:52.210Z,2.67
2017-11-20T23:30:20.469Z,2.17
2017-11-20T23:32:48.840Z,2.50
2017-11-20T23:35:17.094Z,2.27
2017-11-20T23:37:46.142Z,2.23
2017-11-20T23:40:14.345Z,2.50
2017-11-20T23:42:42.607Z,2.47
2017-11-20T23:45:10.816Z,2.07
2017-11-20T23:47:39.829Z,2.47
2017-11-20T23:50:08.872Z,2.30
2017-11-20T23:52:37.142Z,2.20
2017-11-20T23:55:05.408Z,2.00
2017-11-20T23:57:33.622Z,3.07
